sensor_id;sensor_type;location;lat;lon;timestamp;P1;durP1;ratioP1;P2;durP2;ratioP2
6937;SDS011;40040;42.706;23.372;2023-05-07T00:00:08;16.38;;;11.82;;
6937;SDS011;40040;42.706;23.372;2023-05-07T00:02:36;16.17;;;11.43;;
6937;SDS011;40040;42.706;23.372;2023-05-07T00:05:05;16.77;;;12.15;;
6937;SDS011;40040;42.706;23.372;2023-05-07T00:07:32;19.55;;;13.63;;
6937;SDS011;40040;42.706;23.372;2023-05-07T00:09:59;16.65;;;11.55;;
6937;SDS011;40040;42.706;23.372;2023-05-07T00:12:26;19.02;;;12.20;;
6937;SDS011;40040;42.706;23.372;2023-05-07T00:14:56;17.15;;;12.20;;
6937;SDS011;40040;42.706;23.372;2023-05-07T00:17:23;24.65;;;14.05;;
6937;SDS011;40040;42.706;23.372;2023-05-07T00:19:50;25.08;;;15.27;;
6937;SDS011;40040;42.706;23.372;2023-05-07T00:22:18;24.20;;;14.93;;
6937;SDS011;40040;42.706;23.372;2023-05-07T00:24:45;25.50;;;14.60;;
6937;SDS011;40040;42.706;23.372;2023-05-07T00:27:11;20.60;;;13.27;;
6937;SDS011;40040;42.706;23.372;2023-05-07T00:29:38;19.42;;;12.93;;
6937;SDS011;40040;42.706;23.372;2023-05-07T00:32:05;16.45;;;11.77;;
6937;SDS011;40040;42.706;23.372;2023-05-07T00:34:32;16.05;;;11.63;;
6937;SDS011;40040;42.706;23.372;2023-05-07T00:36:58;18.50;;;11.10;;
6937;SDS011;40040;42.706;23.372;2023-05-07T00:39:27;14.90;;;11.10;;
6937;SDS011;40040;42.706;23.372;2023-05-07T00:41:53;14.32;;;11.02;;
6937;SDS011;40040;42.706;23.372;2023-05-07T00:44:20;15.27;;;10.50;;
6937;SDS011;40040;42.706;23.372;2023-05-07T00:46:47;15.20;;;11.23;;
6937;SDS011;40040;42.706;23.372;2023-05-07T00:49:15;24.08;;;14.02;;
6937;SDS011;40040;42.706;23.372;2023-05-07T00:51:42;21.25;;;13.82;;
6937;SDS011;40040;42.706;23.372;2023-05-07T00:54:08;20.45;;;12.65;;
6937;SDS011;40040;42.706;23.372;2023-05-07T00:56:37;17.13;;;12.13;;
6937;SDS011;40040;42.706;23.372;2023-05-07T00:59:04;15.18;;;11.20;;
6937;SDS011;40040;42.706;23.372;2023-05-07T01:01:32;14.27;;;10.77;;
6937;SDS011;40040;42.706;23.372;2023-05-07T01:03:59;14.95;;;10.40;;
6937;SDS011;40040;42.706;23.372;2023-05-07T01:06:26;10.75;;;8.20;;
6937;SDS011;40040;42.706;23.372;2023-05-07T01:08:55;10.52;;;8.10;;
6937;SDS011;40040;42.706;23.372;2023-05-07T01:11:22;8.48;;;7.53;;
6937;SDS011;40040;42.706;23.372;2023-05-07T01:13:51;10.27;;;8.32;;
6937;SDS011;40040;42.706;23.372;2023-05-07T01:16:19;10.52;;;7.40;;
6937;SDS011;40040;42.706;23.372;2023-05-07T01:18:46;12.13;;;8.50;;
6937;SDS011;40040;42.706;23.372;2023-05-07T01:21:14;10.90;;;8.55;;
6937;SDS011;40040;42.706;23.372;2023-05-07T01:23:45;10.52;;;9.02;;
6937;SDS011;40040;42.706;23.372;2023-05-07T01:26:13;11.50;;;8.20;;
6937;SDS011;40040;42.706;23.372;2023-05-07T01:28:40;10.48;;;8.35;;
6937;SDS011;40040;42.706;23.372;2023-05-07T01:31:06;9.93;;;7.88;;
6937;SDS011;40040;42.706;23.372;2023-05-07T01:33:35;12.95;;;8.18;;
6937;SDS011;40040;42.706;23.372;2023-05-07T01:36:03;9.90;;;7.80;;
6937;SDS011;40040;42.706;23.372;2023-05-07T01:38:33;11.07;;;7.90;;
6937;SDS011;40040;42.706;23.372;2023-05-07T01:41:02;10.23;;;8.60;;
6937;SDS011;40040;42.706;23.372;2023-05-07T01:43:30;11.82;;;8.45;;
6937;SDS011;40040;42.706;23.372;2023-05-07T01:45:57;10.55;;;8.32;;
6937;SDS011;40040;42.706;23.372;2023-05-07T01:48:24;9.82;;;8.13;;
6937;SDS011;40040;42.706;23.372;2023-05-07T01:50:52;11.15;;;7.97;;
6937;SDS011;40040;42.706;23.372;2023-05-07T01:53:19;10.00;;;7.28;;
6937;SDS011;40040;42.706;23.372;2023-05-07T01:55:46;9.68;;;7.88;;
6937;SDS011;40040;42.706;23.372;2023-05-07T01:58:14;11.35;;;8.07;;
6937;SDS011;40040;42.706;23.372;2023-05-07T02:00:41;9.70;;;7.45;;
6937;SDS011;40040;42.706;23.372;2023-05-07T02:03:07;9.57;;;7.55;;
6937;SDS011;40040;42.706;23.372;2023-05-07T02:05:34;9.10;;;7.50;;
6937;SDS011;40040;42.706;23.372;2023-05-07T02:08:01;10.60;;;8.13;;
6937;SDS011;40040;42.706;23.372;2023-05-07T02:10:28;10.93;;;7.90;;
6937;SDS011;40040;42.706;23.372;2023-05-07T02:12:54;9.82;;;7.75;;
6937;SDS011;40040;42.706;23.372;2023-05-07T02:15:23;10.95;;;8.45;;
6937;SDS011;40040;42.706;23.372;2023-05-07T02:17:59;13.40;;;8.50;;
6937;SDS011;40040;42.706;23.372;2023-05-07T02:20:27;9.02;;;7.63;;
6937;SDS011;40040;42.706;23.372;2023-05-07T02:22:54;10.07;;;8.43;;
6937;SDS011;40040;42.706;23.372;2023-05-07T02:25:21;9.30;;;8.25;;
6937;SDS011;40040;42.706;23.372;2023-05-07T02:27:47;12.88;;;8.52;;
6937;SDS011;40040;42.706;23.372;2023-05-07T02:30:14;9.77;;;8.13;;
6937;SDS011;40040;42.706;23.372;2023-05-07T02:32:43;11.70;;;8.63;;
6937;SDS011;40040;42.706;23.372;2023-05-07T02:35:09;10.23;;;8.25;;
6937;SDS011;40040;42.706;23.372;2023-05-07T02:37:38;12.63;;;8.50;;
6937;SDS011;40040;42.706;23.372;2023-05-07T02:40:05;11.27;;;8.65;;
6937;SDS011;40040;42.706;23.372;2023-05-07T02:42:33;10.18;;;8.05;;
6937;SDS011;40040;42.706;23.372;2023-05-07T02:45:00;12.60;;;8.57;;
6937;SDS011;40040;42.706;23.372;2023-05-07T02:47:27;9.80;;;8.15;;
6937;SDS011;40040;42.706;23.372;2023-05-07T02:49:56;12.40;;;8.32;;
6937;SDS011;40040;42.706;23.372;2023-05-07T02:52:23;10.55;;;8.05;;
6937;SDS011;40040;42.706;23.372;2023-05-07T02:54:50;12.55;;;8.63;;
6937;SDS011;40040;42.706;23.372;2023-05-07T02:57:21;12.55;;;9.60;;
6937;SDS011;40040;42.706;23.372;2023-05-07T02:59:48;16.90;;;9.18;;
6937;SDS011;40040;42.706;23.372;2023-05-07T03:02:17;16.30;;;9.07;;
6937;SDS011;40040;42.706;23.372;2023-05-07T03:04:44;15.27;;;9.07;;
6937;SDS011;40040;42.706;23.372;2023-05-07T03:07:12;16.88;;;10.10;;
6937;SDS011;40040;42.706;23.372;2023-05-07T03:09:39;14.10;;;9.85;;
6937;SDS011;40040;42.706;23.372;2023-05-07T03:12:06;10.75;;;8.65;;
6937;SDS011;40040;42.706;23.372;2023-05-07T03:14:33;13.68;;;9.20;;
6937;SDS011;40040;42.706;23.372;2023-05-07T03:17:00;16.05;;;10.18;;
6937;SDS011;40040;42.706;23.372;2023-05-07T03:19:27;13.60;;;10.77;;
6937;SDS011;40040;42.706;23.372;2023-05-07T03:21:55;20.08;;;13.77;;
6937;SDS011;40040;42.706;23.372;2023-05-07T03:24:23;15.70;;;12.32;;
6937;SDS011;40040;42.706;23.372;2023-05-07T03:26:50;19.75;;;13.30;;
6937;SDS011;40040;42.706;23.372;2023-05-07T03:29:17;20.13;;;13.50;;
6937;SDS011;40040;42.706;23.372;2023-05-07T03:31:44;21.45;;;14.07;;
6937;SDS011;40040;42.706;23.372;2023-05-07T03:34:11;21.50;;;13.63;;
6937;SDS011;40040;42.706;23.372;2023-05-07T03:36:38;19.25;;;13.65;;
6937;SDS011;40040;42.706;23.372;2023-05-07T03:39:05;19.45;;;13.60;;
6937;SDS011;40040;42.706;23.372;2023-05-07T03:41:33;18.20;;;13.35;;
6937;SDS011;40040;42.706;23.372;2023-05-07T03:44:00;16.10;;;12.43;;
6937;SDS011;40040;42.706;23.372;2023-05-07T03:46:27;18.10;;;12.95;;
6937;SDS011;40040;42.706;23.372;2023-05-07T03:48:54;16.70;;;11.68;;
6937;SDS011;40040;42.706;23.372;2023-05-07T03:51:20;20.75;;;12.10;;
6937;SDS011;40040;42.706;23.372;2023-05-07T03:53:47;19.55;;;13.18;;
6937;SDS011;40040;42.706;23.372;2023-05-07T03:56:14;15.82;;;12.30;;
6937;SDS011;40040;42.706;23.372;2023-05-07T03:58:42;14.77;;;11.90;;
6937;SDS011;40040;42.706;23.372;2023-05-07T04:01:09;17.77;;;12.10;;
6937;SDS011;40040;42.706;23.372;2023-05-07T04:03:36;19.70;;;11.48;;
6937;SDS011;40040;42.706;23.372;2023-05-07T04:06:03;17.25;;;11.80;;
6937;SDS011;40040;42.706;23.372;2023-05-07T04:08:30;16.58;;;11.35;;
6937;SDS011;40040;42.706;23.372;2023-05-07T04:10:57;19.48;;;12.52;;
6937;SDS011;40040;42.706;23.372;2023-05-07T04:13:24;23.50;;;12.63;;
6937;SDS011;40040;42.706;23.372;2023-05-07T04:15:55;17.20;;;11.75;;
6937;SDS011;40040;42.706;23.372;2023-05-07T04:18:22;19.67;;;12.32;;
6937;SDS011;40040;42.706;23.372;2023-05-07T04:20:49;20.08;;;12.68;;
6937;SDS011;40040;42.706;23.372;2023-05-07T04:23:16;20.15;;;13.02;;
6937;SDS011;40040;42.706;23.372;2023-05-07T04:25:42;23.27;;;13.45;;
6937;SDS011;40040;42.706;23.372;2023-05-07T04:28:10;19.58;;;13.02;;
6937;SDS011;40040;42.706;23.372;2023-05-07T04:30:37;22.35;;;13.52;;
6937;SDS011;40040;42.706;23.372;2023-05-07T04:33:06;17.58;;;13.30;;
6937;SDS011;40040;42.706;23.372;2023-05-07T04:35:33;23.23;;;14.48;;
6937;SDS011;40040;42.706;23.372;2023-05-07T04:38:01;25.27;;;15.57;;
6937;SDS011;40040;42.706;23.372;2023-05-07T04:40:28;18.27;;;12.80;;
6937;SDS011;40040;42.706;23.372;2023-05-07T04:42:55;19.75;;;12.00;;
6937;SDS011;40040;42.706;23.372;2023-05-07T04:45:21;17.13;;;11.80;;
6937;SDS011;40040;42.706;23.372;2023-05-07T04:47:48;16.83;;;11.13;;
6937;SDS011;40040;42.706;23.372;2023-05-07T04:50:16;19.63;;;12.68;;
6937;SDS011;40040;42.706;23.372;2023-05-07T04:52:45;16.40;;;12.85;;
6937;SDS011;40040;42.706;23.372;2023-05-07T04:55:12;16.55;;;11.40;;
6937;SDS011;40040;42.706;23.372;2023-05-07T04:57:40;18.92;;;12.05;;
6937;SDS011;40040;42.706;23.372;2023-05-07T05:00:08;17.05;;;11.50;;
6937;SDS011;40040;42.706;23.372;2023-05-07T05:02:35;17.92;;;12.13;;
6937;SDS011;40040;42.706;23.372;2023-05-07T05:05:04;16.85;;;11.98;;
6937;SDS011;40040;42.706;23.372;2023-05-07T05:07:32;18.30;;;12.68;;
6937;SDS011;40040;42.706;23.372;2023-05-07T05:09:59;16.27;;;12.48;;
6937;SDS011;40040;42.706;23.372;2023-05-07T05:12:26;16.85;;;12.07;;
6937;SDS011;40040;42.706;23.372;2023-05-07T05:14:53;17.55;;;12.38;;
6937;SDS011;40040;42.706;23.372;2023-05-07T05:17:20;17.70;;;13.05;;
6937;SDS011;40040;42.706;23.372;2023-05-07T05:19:47;22.70;;;12.68;;
6937;SDS011;40040;42.706;23.372;2023-05-07T05:22:14;20.40;;;14.30;;
6937;SDS011;40040;42.706;23.372;2023-05-07T05:24:42;19.08;;;13.02;;
6937;SDS011;40040;42.706;23.372;2023-05-07T05:27:09;14.90;;;12.73;;
6937;SDS011;40040;42.706;23.372;2023-05-07T05:29:36;17.80;;;12.73;;
6937;SDS011;40040;42.706;23.372;2023-05-07T05:32:02;18.63;;;13.40;;
6937;SDS011;40040;42.706;23.372;2023-05-07T05:34:29;18.63;;;12.68;;
6937;SDS011;40040;42.706;23.372;2023-05-07T05:36:58;18.10;;;13.48;;
6937;SDS011;40040;42.706;23.372;2023-05-07T05:39:25;20.88;;;13.45;;
6937;SDS011;40040;42.706;23.372;2023-05-07T05:41:53;17.92;;;12.80;;
6937;SDS011;40040;42.706;23.372;2023-05-07T05:44:20;16.98;;;12.48;;
6937;SDS011;40040;42.706;23.372;2023-05-07T05:46:47;18.45;;;13.00;;
6937;SDS011;40040;42.706;23.372;2023-05-07T05:49:14;19.70;;;12.68;;
6937;SDS011;40040;42.706;23.372;2023-05-07T05:51:41;18.15;;;12.43;;
6937;SDS011;40040;42.706;23.372;2023-05-07T05:54:08;17.38;;;11.90;;
6937;SDS011;40040;42.706;23.372;2023-05-07T05:56:35;18.17;;;12.02;;
6937;SDS011;40040;42.706;23.372;2023-05-07T05:59:05;16.60;;;12.18;;
6937;SDS011;40040;42.706;23.372;2023-05-07T06:01:32;15.68;;;12.40;;
6937;SDS011;40040;42.706;23.372;2023-05-07T06:03:58;17.17;;;12.35;;
6937;SDS011;40040;42.706;23.372;2023-05-07T06:06:25;15.07;;;11.43;;
6937;SDS011;40040;42.706;23.372;2023-05-07T06:08:52;14.43;;;12.10;;
6937;SDS011;40040;42.706;23.372;2023-05-07T06:11:19;14.65;;;11.98;;
6937;SDS011;40040;42.706;23.372;2023-05-07T06:13:46;16.42;;;12.90;;
6937;SDS011;40040;42.706;23.372;2023-05-07T06:16:15;13.95;;;11.90;;
6937;SDS011;40040;42.706;23.372;2023-05-07T06:18:41;17.55;;;12.45;;
6937;SDS011;40040;42.706;23.372;2023-05-07T06:21:09;19.35;;;12.65;;
6937;SDS011;40040;42.706;23.372;2023-05-07T06:23:36;16.50;;;11.88;;
6937;SDS011;40040;42.706;23.372;2023-05-07T06:26:03;15.38;;;11.85;;
6937;SDS011;40040;42.706;23.372;2023-05-07T06:28:30;15.55;;;12.38;;
6937;SDS011;40040;42.706;23.372;2023-05-07T06:31:10;15.25;;;12.25;;
6937;SDS011;40040;42.706;23.372;2023-05-07T06:33:39;16.67;;;12.82;;
6937;SDS011;40040;42.706;23.372;2023-05-07T06:36:06;18.33;;;13.45;;
6937;SDS011;40040;42.706;23.372;2023-05-07T06:38:33;16.80;;;12.88;;
6937;SDS011;40040;42.706;23.372;2023-05-07T06:41:00;17.15;;;13.02;;
6937;SDS011;40040;42.706;23.372;2023-05-07T06:43:26;15.88;;;12.40;;
6937;SDS011;40040;42.706;23.372;2023-05-07T06:45:53;17.17;;;12.18;;
6937;SDS011;40040;42.706;23.372;2023-05-07T06:48:20;16.95;;;12.73;;
6937;SDS011;40040;42.706;23.372;2023-05-07T06:50:48;13.43;;;11.80;;
6937;SDS011;40040;42.706;23.372;2023-05-07T06:53:15;15.95;;;12.20;;
6937;SDS011;40040;42.706;23.372;2023-05-07T06:55:42;18.48;;;13.27;;
6937;SDS011;40040;42.706;23.372;2023-05-07T06:58:09;15.40;;;12.85;;
6937;SDS011;40040;42.706;23.372;2023-05-07T07:00:35;16.42;;;13.40;;
6937;SDS011;40040;42.706;23.372;2023-05-07T07:03:02;14.77;;;12.23;;
6937;SDS011;40040;42.706;23.372;2023-05-07T07:05:29;17.92;;;13.68;;
6937;SDS011;40040;42.706;23.372;2023-05-07T07:07:57;13.80;;;12.27;;
6937;SDS011;40040;42.706;23.372;2023-05-07T07:10:24;17.33;;;11.95;;
6937;SDS011;40040;42.706;23.372;2023-05-07T07:12:51;13.75;;;12.15;;
6937;SDS011;40040;42.706;23.372;2023-05-07T07:15:19;15.00;;;11.77;;
6937;SDS011;40040;42.706;23.372;2023-05-07T07:17:47;14.27;;;11.80;;
6937;SDS011;40040;42.706;23.372;2023-05-07T07:20:14;13.82;;;11.68;;
6937;SDS011;40040;42.706;23.372;2023-05-07T07:22:41;14.98;;;12.52;;
6937;SDS011;40040;42.706;23.372;2023-05-07T07:25:09;14.65;;;12.27;;
6937;SDS011;40040;42.706;23.372;2023-05-07T07:27:37;13.43;;;12.02;;
6937;SDS011;40040;42.706;23.372;2023-05-07T07:30:05;13.07;;;11.73;;
6937;SDS011;40040;42.706;23.372;2023-05-07T07:32:33;13.40;;;11.70;;
6937;SDS011;40040;42.706;23.372;2023-05-07T07:35:00;15.05;;;11.52;;
6937;SDS011;40040;42.706;23.372;2023-05-07T07:37:27;15.20;;;12.15;;
6937;SDS011;40040;42.706;23.372;2023-05-07T07:39:55;14.00;;;11.32;;
6937;SDS011;40040;42.706;23.372;2023-05-07T07:42:23;14.60;;;11.80;;
6937;SDS011;40040;42.706;23.372;2023-05-07T07:44:50;15.07;;;11.43;;
6937;SDS011;40040;42.706;23.372;2023-05-07T07:47:16;14.52;;;11.23;;
6937;SDS011;40040;42.706;23.372;2023-05-07T07:49:43;11.95;;;10.68;;
6937;SDS011;40040;42.706;23.372;2023-05-07T07:52:10;13.45;;;10.75;;
6937;SDS011;40040;42.706;23.372;2023-05-07T07:54:37;13.15;;;11.05;;
6937;SDS011;40040;42.706;23.372;2023-05-07T07:57:03;12.60;;;10.25;;
6937;SDS011;40040;42.706;23.372;2023-05-07T07:59:31;11.60;;;10.30;;
6937;SDS011;40040;42.706;23.372;2023-05-07T08:01:58;11.82;;;10.05;;
6937;SDS011;40040;42.706;23.372;2023-05-07T08:04:25;11.40;;;10.20;;
6937;SDS011;40040;42.706;23.372;2023-05-07T08:06:52;13.57;;;9.82;;
6937;SDS011;40040;42.706;23.372;2023-05-07T08:09:19;10.80;;;9.73;;
6937;SDS011;40040;42.706;23.372;2023-05-07T08:11:46;10.43;;;9.32;;
6937;SDS011;40040;42.706;23.372;2023-05-07T08:14:13;12.23;;;9.63;;
6937;SDS011;40040;42.706;23.372;2023-05-07T08:16:42;12.52;;;10.27;;
6937;SDS011;40040;42.706;23.372;2023-05-07T08:19:09;11.25;;;9.77;;
6937;SDS011;40040;42.706;23.372;2023-05-07T08:21:38;9.55;;;8.48;;
6937;SDS011;40040;42.706;23.372;2023-05-07T08:24:06;11.07;;;8.93;;
6937;SDS011;40040;42.706;23.372;2023-05-07T08:26:33;9.85;;;8.95;;
6937;SDS011;40040;42.706;23.372;2023-05-07T08:29:01;9.65;;;8.73;;
6937;SDS011;40040;42.706;23.372;2023-05-07T08:31:28;9.95;;;8.95;;
6937;SDS011;40040;42.706;23.372;2023-05-07T08:33:56;9.85;;;8.93;;
6937;SDS011;40040;42.706;23.372;2023-05-07T08:36:23;10.88;;;8.63;;
6937;SDS011;40040;42.706;23.372;2023-05-07T08:38:50;9.40;;;8.52;;
6937;SDS011;40040;42.706;23.372;2023-05-07T08:41:17;10.10;;;9.10;;
6937;SDS011;40040;42.706;23.372;2023-05-07T08:43:46;9.30;;;8.43;;
6937;SDS011;40040;42.706;23.372;2023-05-07T08:46:16;11.73;;;8.45;;
6937;SDS011;40040;42.706;23.372;2023-05-07T08:48:45;9.45;;;7.50;;
6937;SDS011;40040;42.706;23.372;2023-05-07T08:51:16;9.20;;;7.90;;
6937;SDS011;40040;42.706;23.372;2023-05-07T08:53:44;8.40;;;7.60;;
6937;SDS011;40040;42.706;23.372;2023-05-07T08:56:13;7.95;;;7.15;;
6937;SDS011;40040;42.706;23.372;2023-05-07T08:58:41;9.55;;;7.10;;
6937;SDS011;40040;42.706;23.372;2023-05-07T09:01:09;7.28;;;6.68;;
6937;SDS011;40040;42.706;23.372;2023-05-07T09:03:39;7.70;;;6.93;;
6937;SDS011;40040;42.706;23.372;2023-05-07T09:06:06;7.60;;;7.00;;
6937;SDS011;40040;42.706;23.372;2023-05-07T09:08:34;6.82;;;6.32;;
6937;SDS011;40040;42.706;23.372;2023-05-07T09:11:02;7.03;;;6.38;;
6937;SDS011;40040;42.706;23.372;2023-05-07T09:13:29;5.75;;;5.35;;
6937;SDS011;40040;42.706;23.372;2023-05-07T09:15:56;5.93;;;5.43;;
6937;SDS011;40040;42.706;23.372;2023-05-07T09:18:23;6.15;;;5.72;;
6937;SDS011;40040;42.706;23.372;2023-05-07T09:20:50;5.65;;;5.18;;
6937;SDS011;40040;42.706;23.372;2023-05-07T09:23:17;5.90;;;5.35;;
6937;SDS011;40040;42.706;23.372;2023-05-07T09:25:45;6.15;;;5.60;;
6937;SDS011;40040;42.706;23.372;2023-05-07T09:28:12;6.38;;;5.88;;
6937;SDS011;40040;42.706;23.372;2023-05-07T09:30:39;6.25;;;5.80;;
6937;SDS011;40040;42.706;23.372;2023-05-07T09:33:05;6.25;;;5.75;;
6937;SDS011;40040;42.706;23.372;2023-05-07T09:35:32;6.55;;;6.00;;
6937;SDS011;40040;42.706;23.372;2023-05-07T09:38:00;6.90;;;6.30;;
6937;SDS011;40040;42.706;23.372;2023-05-07T09:40:28;7.00;;;5.53;;
6937;SDS011;40040;42.706;23.372;2023-05-07T09:43:01;6.30;;;5.88;;
6937;SDS011;40040;42.706;23.372;2023-05-07T09:45:36;6.07;;;5.55;;
6937;SDS011;40040;42.706;23.372;2023-05-07T09:48:04;5.53;;;5.13;;
6937;SDS011;40040;42.706;23.372;2023-05-07T09:50:35;5.40;;;5.00;;
6937;SDS011;40040;42.706;23.372;2023-05-07T09:53:04;5.40;;;5.10;;
6937;SDS011;40040;42.706;23.372;2023-05-07T09:55:33;5.93;;;5.50;;
6937;SDS011;40040;42.706;23.372;2023-05-07T09:58:01;5.88;;;5.47;;
6937;SDS011;40040;42.706;23.372;2023-05-07T10:00:30;5.57;;;5.18;;
6937;SDS011;40040;42.706;23.372;2023-05-07T10:02:58;6.22;;;5.72;;
6937;SDS011;40040;42.706;23.372;2023-05-07T10:05:26;5.90;;;5.30;;
6937;SDS011;40040;42.706;23.372;2023-05-07T10:07:53;5.65;;;5.22;;
6937;SDS011;40040;42.706;23.372;2023-05-07T10:10:22;5.68;;;5.28;;
6937;SDS011;40040;42.706;23.372;2023-05-07T10:12:50;5.28;;;4.78;;
6937;SDS011;40040;42.706;23.372;2023-05-07T10:15:18;4.55;;;4.28;;
6937;SDS011;40040;42.706;23.372;2023-05-07T10:17:45;5.25;;;4.75;;
6937;SDS011;40040;42.706;23.372;2023-05-07T10:20:14;5.20;;;4.80;;
6937;SDS011;40040;42.706;23.372;2023-05-07T10:22:41;4.68;;;4.32;;
6937;SDS011;40040;42.706;23.372;2023-05-07T10:25:14;4.63;;;4.28;;
6937;SDS011;40040;42.706;23.372;2023-05-07T10:27:44;10.63;;;5.03;;
6937;SDS011;40040;42.706;23.372;2023-05-07T10:30:15;5.53;;;5.13;;
6937;SDS011;40040;42.706;23.372;2023-05-07T10:32:53;12.90;;;9.98;;
6937;SDS011;40040;42.706;23.372;2023-05-07T10:35:23;10.25;;;8.20;;
6937;SDS011;40040;42.706;23.372;2023-05-07T10:37:53;6.07;;;5.30;;
6937;SDS011;40040;42.706;23.372;2023-05-07T10:40:20;4.72;;;4.43;;
6937;SDS011;40040;42.706;23.372;2023-05-07T10:42:54;6.05;;;4.95;;
6937;SDS011;40040;42.706;23.372;2023-05-07T10:45:23;5.28;;;4.88;;
6937;SDS011;40040;42.706;23.372;2023-05-07T10:48:07;5.00;;;4.53;;
6937;SDS011;40040;42.706;23.372;2023-05-07T10:50:35;6.45;;;5.78;;
6937;SDS011;40040;42.706;23.372;2023-05-07T10:53:24;12.20;;;10.07;;
6937;SDS011;40040;42.706;23.372;2023-05-07T10:58:56;8.80;;;5.47;;
6937;SDS011;40040;42.706;23.372;2023-05-07T11:01:50;5.35;;;5.05;;
6937;SDS011;40040;42.706;23.372;2023-05-07T11:04:19;6.35;;;5.80;;
6937;SDS011;40040;42.706;23.372;2023-05-07T11:10:00;5.38;;;4.93;;
6937;SDS011;40040;42.706;23.372;2023-05-07T11:12:48;5.20;;;4.90;;
6937;SDS011;40040;42.706;23.372;2023-05-07T11:18:11;5.53;;;4.93;;
6937;SDS011;40040;42.706;23.372;2023-05-07T11:20:54;5.88;;;5.38;;
6937;SDS011;40040;42.706;23.372;2023-05-07T11:26:25;6.07;;;5.47;;
6937;SDS011;40040;42.706;23.372;2023-05-07T11:28:53;5.05;;;4.75;;
6937;SDS011;40040;42.706;23.372;2023-05-07T11:31:21;5.00;;;4.60;;
6937;SDS011;40040;42.706;23.372;2023-05-07T11:33:52;4.80;;;4.50;;
6937;SDS011;40040;42.706;23.372;2023-05-07T11:36:20;4.55;;;4.22;;
6937;SDS011;40040;42.706;23.372;2023-05-07T11:38:48;6.22;;;4.40;;
6937;SDS011;40040;42.706;23.372;2023-05-07T11:41:16;3.72;;;3.63;;
6937;SDS011;40040;42.706;23.372;2023-05-07T11:43:54;15.52;;;11.82;;
6937;SDS011;40040;42.706;23.372;2023-05-07T11:46:22;4.00;;;3.80;;
6937;SDS011;40040;42.706;23.372;2023-05-07T11:48:49;5.60;;;5.13;;
6937;SDS011;40040;42.706;23.372;2023-05-07T11:51:19;17.42;;;12.75;;
6937;SDS011;40040;42.706;23.372;2023-05-07T11:53:47;6.72;;;5.72;;
6937;SDS011;40040;42.706;23.372;2023-05-07T11:56:15;5.47;;;5.07;;
6937;SDS011;40040;42.706;23.372;2023-05-07T11:58:43;4.75;;;4.45;;
6937;SDS011;40040;42.706;23.372;2023-05-07T12:01:11;5.20;;;4.80;;
6937;SDS011;40040;42.706;23.372;2023-05-07T12:03:39;4.55;;;4.25;;
6937;SDS011;40040;42.706;23.372;2023-05-07T12:06:09;3.92;;;3.72;;
6937;SDS011;40040;42.706;23.372;2023-05-07T12:08:38;4.50;;;4.20;;
6937;SDS011;40040;42.706;23.372;2023-05-07T12:11:07;4.18;;;3.83;;
6937;SDS011;40040;42.706;23.372;2023-05-07T12:13:36;4.22;;;3.92;;
6937;SDS011;40040;42.706;23.372;2023-05-07T12:16:03;4.32;;;4.10;;
6937;SDS011;40040;42.706;23.372;2023-05-07T12:18:32;3.90;;;3.70;;
6937;SDS011;40040;42.706;23.372;2023-05-07T12:21:00;4.60;;;4.28;;
6937;SDS011;40040;42.706;23.372;2023-05-07T12:23:28;4.72;;;4.40;;
6937;SDS011;40040;42.706;23.372;2023-05-07T12:25:56;4.28;;;4.00;;
6937;SDS011;40040;42.706;23.372;2023-05-07T12:28:23;3.65;;;3.45;;
6937;SDS011;40040;42.706;23.372;2023-05-07T12:30:50;3.92;;;3.70;;
6937;SDS011;40040;42.706;23.372;2023-05-07T12:33:17;4.28;;;3.97;;
6937;SDS011;40040;42.706;23.372;2023-05-07T12:35:47;4.00;;;3.80;;
6937;SDS011;40040;42.706;23.372;2023-05-07T12:38:14;3.85;;;3.58;;
6937;SDS011;40040;42.706;23.372;2023-05-07T12:40:43;4.70;;;4.40;;
6937;SDS011;40040;42.706;23.372;2023-05-07T12:43:16;3.83;;;3.53;;
6937;SDS011;40040;42.706;23.372;2023-05-07T12:45:44;4.07;;;3.85;;
6937;SDS011;40040;42.706;23.372;2023-05-07T12:48:11;4.18;;;3.88;;
6937;SDS011;40040;42.706;23.372;2023-05-07T12:50:38;4.03;;;3.80;;
6937;SDS011;40040;42.706;23.372;2023-05-07T12:53:05;3.70;;;3.50;;
6937;SDS011;40040;42.706;23.372;2023-05-07T12:55:39;3.65;;;3.35;;
6937;SDS011;40040;42.706;23.372;2023-05-07T12:58:07;3.90;;;3.70;;
6937;SDS011;40040;42.706;23.372;2023-05-07T13:00:37;3.30;;;3.20;;
6937;SDS011;40040;42.706;23.372;2023-05-07T13:03:05;3.60;;;3.40;;
6937;SDS011;40040;42.706;23.372;2023-05-07T13:05:31;4.15;;;3.85;;
6937;SDS011;40040;42.706;23.372;2023-05-07T13:07:59;3.95;;;3.75;;
6937;SDS011;40040;42.706;23.372;2023-05-07T13:10:26;3.78;;;3.40;;
6937;SDS011;40040;42.706;23.372;2023-05-07T13:12:53;4.22;;;3.90;;
6937;SDS011;40040;42.706;23.372;2023-05-07T13:15:20;4.78;;;4.40;;
6937;SDS011;40040;42.706;23.372;2023-05-07T13:17:49;3.90;;;3.50;;
6937;SDS011;40040;42.706;23.372;2023-05-07T13:20:17;4.18;;;3.88;;
6937;SDS011;40040;42.706;23.372;2023-05-07T13:22:44;4.00;;;3.67;;
6937;SDS011;40040;42.706;23.372;2023-05-07T13:25:10;4.25;;;3.95;;
6937;SDS011;40040;42.706;23.372;2023-05-07T13:27:37;4.20;;;3.90;;
6937;SDS011;40040;42.706;23.372;2023-05-07T13:30:05;4.40;;;4.10;;
6937;SDS011;40040;42.706;23.372;2023-05-07T13:32:32;4.82;;;4.43;;
6937;SDS011;40040;42.706;23.372;2023-05-07T13:35:00;4.40;;;4.10;;
6937;SDS011;40040;42.706;23.372;2023-05-07T13:37:27;4.82;;;4.43;;
6937;SDS011;40040;42.706;23.372;2023-05-07T13:39:54;4.10;;;3.83;;
6937;SDS011;40040;42.706;23.372;2023-05-07T13:42:21;3.70;;;3.50;;
6937;SDS011;40040;42.706;23.372;2023-05-07T13:44:47;4.03;;;3.53;;
6937;SDS011;40040;42.706;23.372;2023-05-07T13:47:14;4.00;;;3.80;;
6937;SDS011;40040;42.706;23.372;2023-05-07T13:49:41;3.80;;;3.60;;
6937;SDS011;40040;42.706;23.372;2023-05-07T13:52:09;4.03;;;3.72;;
6937;SDS011;40040;42.706;23.372;2023-05-07T13:54:36;4.18;;;3.95;;
6937;SDS011;40040;42.706;23.372;2023-05-07T13:57:03;5.13;;;4.75;;
6937;SDS011;40040;42.706;23.372;2023-05-07T13:59:30;4.55;;;4.25;;
6937;SDS011;40040;42.706;23.372;2023-05-07T14:01:56;4.28;;;3.97;;
6937;SDS011;40040;42.706;23.372;2023-05-07T14:04:23;3.80;;;3.60;;
6937;SDS011;40040;42.706;23.372;2023-05-07T14:06:50;4.57;;;4.22;;
6937;SDS011;40040;42.706;23.372;2023-05-07T14:09:18;3.72;;;3.53;;
6937;SDS011;40040;42.706;23.372;2023-05-07T14:11:45;4.30;;;4.00;;
6937;SDS011;40040;42.706;23.372;2023-05-07T14:14:12;4.13;;;3.92;;
6937;SDS011;40040;42.706;23.372;2023-05-07T14:16:39;4.28;;;4.05;;
6937;SDS011;40040;42.706;23.372;2023-05-07T14:19:06;4.03;;;3.80;;
6937;SDS011;40040;42.706;23.372;2023-05-07T14:21:33;4.40;;;4.10;;
6937;SDS011;40040;42.706;23.372;2023-05-07T14:23:59;4.43;;;4.13;;
6937;SDS011;40040;42.706;23.372;2023-05-07T14:26:28;5.30;;;4.90;;
6937;SDS011;40040;42.706;23.372;2023-05-07T14:28:55;4.40;;;4.10;;
6937;SDS011;40040;42.706;23.372;2023-05-07T14:31:23;4.00;;;3.70;;
6937;SDS011;40040;42.706;23.372;2023-05-07T14:33:50;4.45;;;3.75;;
6937;SDS011;40040;42.706;23.372;2023-05-07T14:36:17;4.20;;;3.80;;
6937;SDS011;40040;42.706;23.372;2023-05-07T14:38:45;4.47;;;4.20;;
6937;SDS011;40040;42.706;23.372;2023-05-07T14:41:12;3.95;;;3.75;;
6937;SDS011;40040;42.706;23.372;2023-05-07T14:43:40;4.10;;;3.90;;
6937;SDS011;40040;42.706;23.372;2023-05-07T14:46:07;4.38;;;4.00;;
6937;SDS011;40040;42.706;23.372;2023-05-07T14:48:34;4.43;;;4.05;;
6937;SDS011;40040;42.706;23.372;2023-05-07T14:51:01;4.10;;;3.85;;